createdAt,value
2023-05-03T00:01:27.108Z,1.50
2023-05-03T00:03:54.562Z,2.15
2023-05-03T00:06:22.157Z,1.58
2023-05-03T00:08:49.693Z,2.53
2023-05-03T00:11:17.294Z,1.35
2023-05-03T00:13:45.403Z,1.40
2023-05-03T00:16:12.987Z,1.70
2023-05-03T00:18:40.598Z,1.92
2023-05-03T00:21:08.105Z,1.75
2023-05-03T00:23:35.813Z,2.17
2023-05-03T00:26:03.328Z,2.10
2023-05-03T00:28:30.765Z,3.58
2023-05-03T00:31:10.295Z,9.73
2023-05-03T00:33:38.822Z,12.10
2023-05-03T00:36:13.977Z,11.60
2023-05-03T00:38:42.525Z,9.45
2023-05-03T00:41:10.924Z,11.77
2023-05-03T00:43:38.780Z,10.13
2023-05-03T00:46:15.760Z,13.20
2023-05-03T00:48:48.035Z,11.18
2023-05-03T00:51:18.049Z,12.20
2023-05-03T00:53:45.975Z,9.07
2023-05-03T00:56:20.218Z,10.75
2023-05-03T00:58:48.021Z,10.85
2023-05-03T01:01:16.758Z,11.15
2023-05-03T01:03:45.836Z,10.10
2023-05-03T01:06:36.571Z,10.60
2023-05-03T01:09:30.621Z,12.57
2023-05-03T01:12:53.772Z,11.25
2023-05-03T01:15:49.316Z,12.15
2023-05-03T01:18:27.669Z,11.48
2023-05-03T01:20:56.938Z,12.07
2023-05-03T01:24:00.530Z,10.30
2023-05-03T01:26:28.219Z,11.43
2023-05-03T01:28:56.150Z,11.80
2023-05-03T01:31:34.469Z,12.15
2023-05-03T01:34:16.778Z,12.70
2023-05-03T01:36:45.364Z,12.75
2023-05-03T01:39:43.784Z,10.88
2023-05-03T01:42:14.078Z,9.73
2023-05-03T01:44:43.174Z,10.38
2023-05-03T01:47:10.915Z,10.30
2023-05-03T01:49:39.258Z,13.60
2023-05-03T01:52:06.895Z,10.35
2023-05-03T01:54:34.462Z,10.07
2023-05-03T01:57:02.482Z,10.00
2023-05-03T01:59:30.029Z,7.65
2023-05-03T02:01:57.933Z,5.28
2023-05-03T02:04:25.497Z,12.80
2023-05-03T02:06:53.078Z,10.95
2023-05-03T02:09:20.859Z,10.15
2023-05-03T02:11:48.328Z,12.23
2023-05-03T02:14:15.990Z,12.88
2023-05-03T02:16:43.416Z,10.88
2023-05-03T02:19:11.098Z,11.25
2023-05-03T02:21:38.652Z,10.60
2023-05-03T02:24:06.264Z,10.68
2023-05-03T02:26:33.875Z,11.25
2023-05-03T02:29:01.754Z,10.85
2023-05-03T02:31:32.582Z,11.30
2023-05-03T02:34:00.563Z,8.48
2023-05-03T02:36:28.315Z,8.43
2023-05-03T02:38:56.147Z,6.57
2023-05-03T02:41:23.689Z,6.72
2023-05-03T02:43:52.018Z,4.85
2023-05-03T02:46:19.979Z,5.07
2023-05-03T02:48:47.520Z,3.08
2023-05-03T02:51:15.066Z,4.18
2023-05-03T02:53:42.755Z,4.30
2023-05-03T02:56:10.273Z,4.13
2023-05-03T02:58:37.930Z,4.55
2023-05-03T03:01:06.527Z,3.17
2023-05-03T03:03:34.180Z,3.00
2023-05-03T03:06:02.221Z,3.15
2023-05-03T03:08:29.949Z,2.92
2023-05-03T03:11:01.568Z,2.85
2023-05-03T03:13:29.301Z,3.75
2023-05-03T03:15:56.939Z,3.17
2023-05-03T03:18:24.498Z,2.35
2023-05-03T03:20:51.932Z,3.22
2023-05-03T03:23:20.824Z,3.80
2023-05-03T03:25:48.468Z,3.17
2023-05-03T03:28:16.896Z,4.80
2023-05-03T03:30:45.589Z,4.65
2023-05-03T03:33:25.215Z,3.35
2023-05-03T03:35:56.918Z,4.30
2023-05-03T03:38:29.955Z,4.03
2023-05-03T03:41:02.974Z,3.67
2023-05-03T03:43:30.600Z,3.40
2023-05-03T03:45:59.295Z,4.75
2023-05-03T03:48:26.921Z,3.78
2023-05-03T03:50:54.555Z,4.75
2023-05-03T03:53:26.811Z,4.75
2023-05-03T03:55:54.571Z,4.03
2023-05-03T03:58:22.241Z,4.90
2023-05-03T04:00:49.933Z,4.85
2023-05-03T04:03:38.763Z,4.63
2023-05-03T04:06:10.210Z,6.25
2023-05-03T04:08:38.326Z,6.65
2023-05-03T04:11:14.737Z,7.38
2023-05-03T04:13:51.369Z,4.05
2023-05-03T04:16:21.670Z,4.00
2023-05-03T04:18:50.184Z,8.75
2023-05-03T04:21:20.721Z,5.97
2023-05-03T04:23:48.789Z,4.85
2023-05-03T04:26:31.142Z,4.43
2023-05-03T04:29:20.926Z,2.65
2023-05-03T04:32:06.958Z,2.20
2023-05-03T04:34:45.892Z,2.20
2023-05-03T04:37:17.091Z,4.43
2023-05-03T04:39:45.768Z,2.53
2023-05-03T04:42:15.554Z,2.25
2023-05-03T04:44:47.863Z,2.28
2023-05-03T04:47:15.596Z,3.97
2023-05-03T04:49:43.563Z,3.70
2023-05-03T04:52:13.938Z,3.95
2023-05-03T04:54:42.376Z,3.25
2023-05-03T04:57:10.950Z,2.90
2023-05-03T04:59:38.673Z,2.00
2023-05-03T05:02:08.829Z,2.88
2023-05-03T05:04:37.701Z,3.33
2023-05-03T05:07:05.875Z,3.85
2023-05-03T05:09:36.873Z,4.13
2023-05-03T05:12:09.445Z,4.28
2023-05-03T05:14:40.980Z,3.35
2023-05-03T05:17:09.587Z,4.15
2023-05-03T05:19:46.067Z,3.88
2023-05-03T05:22:14.053Z,3.20
2023-05-03T05:24:51.701Z,3.83
2023-05-03T05:27:23.805Z,4.97
2023-05-03T05:30:07.896Z,4.47
2023-05-03T05:32:41.138Z,4.70
2023-05-03T05:35:12.471Z,4.03
2023-05-03T05:37:45.515Z,2.28
2023-05-03T05:40:20.575Z,3.03
2023-05-03T05:42:53.820Z,3.53
2023-05-03T05:45:24.241Z,3.72
2023-05-03T05:48:07.024Z,3.33
2023-05-03T05:50:45.516Z,2.80
2023-05-03T05:53:15.300Z,1.88
2023-05-03T05:56:03.499Z,1.98
2023-05-03T05:58:39.762Z,1.73
2023-05-03T06:01:16.094Z,2.70
2023-05-03T06:03:43.969Z,2.78
2023-05-03T06:06:11.620Z,3.92
2023-05-03T06:08:39.789Z,2.50
2023-05-03T06:11:20.617Z,2.13
2023-05-03T06:13:56.070Z,2.38
2023-05-03T06:16:29.168Z,4.88
2023-05-03T06:19:05.481Z,4.28
2023-05-03T06:21:36.326Z,4.20
2023-05-03T06:24:07.458Z,3.28
2023-05-03T06:26:38.502Z,5.00
2023-05-03T06:29:10.990Z,3.92
2023-05-03T06:31:48.362Z,4.03
2023-05-03T06:34:23.900Z,3.92
2023-05-03T06:36:57.706Z,3.53
2023-05-03T06:39:27.668Z,1.73
2023-05-03T06:41:58.312Z,2.03
2023-05-03T06:44:42.009Z,2.13
2023-05-03T06:47:09.498Z,1.95
2023-05-03T06:49:37.790Z,1.80
2023-05-03T06:52:07.786Z,1.73
2023-05-03T06:54:39.774Z,1.92
2023-05-03T06:57:11.279Z,1.85
2023-05-03T07:00:06.659Z,2.00
2023-05-03T07:02:35.255Z,1.98
2023-05-03T07:05:03.252Z,1.27
2023-05-03T07:07:32.676Z,1.80
2023-05-03T07:10:00.788Z,2.78
2023-05-03T07:12:31.516Z,3.00
2023-05-03T07:14:59.018Z,2.00
2023-05-03T07:17:26.729Z,2.20
2023-05-03T07:19:57.786Z,2.38
2023-05-03T07:22:29.508Z,2.35
2023-05-03T07:24:58.956Z,2.05
2023-05-03T07:27:27.033Z,1.88
2023-05-03T07:29:54.968Z,2.10
2023-05-03T07:32:22.975Z,2.05
2023-05-03T07:34:56.959Z,2.25
2023-05-03T07:37:27.639Z,1.95
2023-05-03T07:39:57.918Z,2.58
2023-05-03T07:42:26.260Z,2.30
2023-05-03T07:44:58.982Z,2.47
2023-05-03T07:47:27.938Z,2.22
2023-05-03T07:49:56.216Z,2.38
2023-05-03T07:52:42.924Z,3.63
2023-05-03T07:55:16.045Z,4.05
2023-05-03T07:57:47.051Z,2.28
2023-05-03T08:00:20.410Z,2.80
2023-05-03T08:02:48.001Z,3.20
2023-05-03T08:05:21.296Z,2.10
2023-05-03T08:07:53.417Z,1.88
2023-05-03T08:10:25.705Z,1.83
2023-05-03T08:13:01.562Z,3.97
2023-05-03T08:15:41.728Z,3.25
2023-05-03T08:18:09.440Z,2.35
2023-05-03T08:20:42.150Z,1.80
2023-05-03T08:23:20.667Z,2.00
2023-05-03T08:25:48.427Z,2.28
2023-05-03T08:28:16.983Z,2.22
2023-05-03T08:30:44.943Z,2.23
2023-05-03T08:33:18.075Z,2.27
2023-05-03T08:35:53.129Z,1.58
2023-05-03T08:38:21.558Z,1.58
2023-05-03T08:40:57.883Z,1.70
2023-05-03T08:43:31.877Z,1.88
2023-05-03T08:46:02.560Z,1.83
2023-05-03T08:48:32.596Z,1.95
2023-05-03T08:51:04.512Z,1.77
2023-05-03T08:53:34.328Z,2.85
2023-05-03T08:56:11.846Z,2.40
2023-05-03T08:58:45.553Z,2.25
2023-05-03T09:01:20.370Z,1.83
2023-05-03T09:03:54.297Z,1.90
2023-05-03T09:06:27.294Z,2.00
2023-05-03T09:09:12.866Z,2.42
2023-05-03T09:12:08.108Z,1.42
2023-05-03T09:15:01.187Z,2.10
2023-05-03T09:17:36.874Z,1.30
2023-05-03T09:20:32.399Z,1.92
2023-05-03T09:23:00.762Z,1.20
2023-05-03T09:26:00.949Z,1.00
2023-05-03T09:28:29.229Z,2.90
2023-05-03T09:31:09.822Z,1.50
2023-05-03T09:33:45.541Z,1.67
2023-05-03T09:36:25.893Z,1.60
2023-05-03T09:39:19.360Z,1.30
2023-05-03T09:41:47.371Z,1.65
2023-05-03T09:44:18.317Z,1.42
2023-05-03T09:47:07.163Z,1.30
2023-05-03T09:49:37.966Z,1.20
2023-05-03T09:52:08.747Z,1.00
2023-05-03T09:54:37.546Z,1.30
2023-05-03T09:57:06.854Z,1.63
2023-05-03T09:59:38.344Z,1.35
2023-05-03T10:02:07.964Z,1.75
2023-05-03T10:04:50.483Z,1.85
2023-05-03T10:07:22.726Z,1.33
2023-05-03T10:09:57.041Z,1.40
2023-05-03T10:12:29.580Z,1.05
2023-05-03T10:15:08.801Z,1.20
2023-05-03T10:17:48.272Z,1.60
2023-05-03T10:20:48.773Z,1.70
2023-05-03T10:23:24.481Z,1.55
2023-05-03T10:26:23.209Z,0.85
2023-05-03T10:29:01.247Z,0.73
2023-05-03T10:31:52.430Z,1.15
2023-05-03T10:34:46.925Z,0.80
2023-05-03T10:37:30.811Z,1.50
2023-05-03T10:40:22.322Z,1.23
2023-05-03T10:43:01.117Z,1.10
2023-05-03T10:45:34.051Z,1.02
2023-05-03T10:48:24.060Z,0.80
2023-05-03T10:50:57.126Z,0.88
2023-05-03T10:53:41.899Z,1.38
2023-05-03T10:56:18.989Z,1.23
2023-05-03T10:58:55.871Z,1.42
2023-05-03T11:01:26.262Z,1.40
2023-05-03T11:04:21.260Z,2.00
2023-05-03T11:06:51.114Z,1.20
2023-05-03T11:09:31.344Z,1.98
2023-05-03T11:12:03.148Z,1.30
2023-05-03T11:14:31.524Z,1.13
2023-05-03T11:17:07.930Z,1.17
2023-05-03T11:19:44.420Z,1.23
2023-05-03T11:22:12.206Z,1.75
2023-05-03T11:24:41.498Z,1.42
2023-05-03T11:27:13.341Z,1.52
2023-05-03T11:29:49.516Z,1.35
2023-05-03T11:32:18.641Z,0.88
2023-05-03T11:34:46.212Z,1.02
2023-05-03T11:37:16.853Z,0.90
2023-05-03T11:39:47.414Z,1.00
2023-05-03T11:42:25.413Z,1.20
2023-05-03T11:44:53.904Z,1.38
2023-05-03T11:47:36.505Z,1.33
2023-05-03T11:50:07.709Z,1.15
2023-05-03T11:52:43.674Z,1.58
2023-05-03T11:55:12.308Z,1.05
2023-05-03T11:57:43.803Z,1.70
2023-05-03T12:00:20.382Z,2.20
2023-05-03T12:02:53.155Z,1.50
2023-05-03T12:05:23.074Z,1.60
2023-05-03T12:08:01.684Z,1.55
2023-05-03T12:10:33.641Z,1.80
2023-05-03T12:13:01.859Z,2.03
2023-05-03T12:15:37.058Z,1.45
2023-05-03T12:18:25.624Z,2.13
2023-05-03T12:28:29.110Z,1.92
2023-05-03T12:31:04.936Z,1.88
2023-05-03T12:33:38.661Z,1.92
2023-05-03T12:36:14.973Z,1.60
2023-05-03T12:38:44.265Z,1.98
2023-05-03T12:41:14.747Z,1.33
2023-05-03T12:43:44.343Z,1.92
2023-05-03T12:46:32.851Z,1.67
2023-05-03T12:49:07.736Z,1.73
2023-05-03T12:51:42.272Z,1.20
2023-05-03T12:54:11.061Z,1.35
2023-05-03T12:59:31.698Z,1.50
2023-05-03T13:07:13.562Z,1.90
2023-05-03T13:12:21.853Z,1.27
2023-05-03T13:14:56.284Z,1.20
2023-05-03T13:17:24.051Z,1.25
2023-05-03T13:19:55.230Z,1.52
2023-05-03T13:22:23.451Z,0.95
2023-05-03T13:24:57.025Z,1.52
2023-05-03T13:27:26.213Z,1.08
2023-05-03T13:29:56.499Z,1.30
2023-05-03T13:32:25.036Z,1.57
2023-05-03T13:34:52.830Z,0.98
2023-05-03T13:37:21.125Z,1.20
2023-05-03T13:39:49.313Z,1.30
2023-05-03T13:42:19.752Z,4.50
2023-05-03T13:44:47.188Z,2.45
2023-05-03T13:47:17.175Z,2.05
2023-05-03T13:49:55.877Z,1.35
2023-05-03T13:52:27.268Z,1.67
2023-05-03T13:54:59.910Z,2.30
2023-05-03T13:57:39.204Z,3.45
2023-05-03T14:00:11.779Z,1.60
2023-05-03T14:02:40.328Z,1.85
2023-05-03T14:05:12.661Z,1.90
2023-05-03T14:07:41.386Z,1.30
2023-05-03T14:10:15.123Z,1.90
2023-05-03T14:12:45.596Z,2.28
2023-05-03T14:15:14.382Z,1.90
2023-05-03T14:17:45.488Z,1.38
2023-05-03T14:20:13.747Z,1.73
2023-05-03T14:22:41.707Z,1.50
2023-05-03T14:25:19.905Z,1.23
2023-05-03T14:27:48.921Z,1.00
2023-05-03T14:30:24.069Z,1.00
2023-05-03T14:32:56.096Z,1.55
2023-05-03T14:35:28.687Z,1.50
2023-05-03T14:38:00.672Z,1.40
2023-05-03T14:43:03.453Z,1.38
2023-05-03T14:45:32.186Z,2.38
2023-05-03T14:48:01.372Z,1.02
2023-05-03T14:50:32.015Z,1.38
2023-05-03T14:53:01.483Z,2.08
2023-05-03T14:55:32.782Z,1.67
2023-05-03T14:58:00.325Z,1.83
2023-05-03T15:00:31.092Z,1.35
2023-05-03T15:02:59.066Z,1.10
2023-05-03T15:05:27.116Z,1.42
2023-05-03T15:07:58.309Z,1.30
2023-05-03T15:12:53.947Z,1.70
2023-05-03T15:15:21.440Z,1.55
2023-05-03T15:17:55.618Z,1.52
2023-05-03T15:20:24.370Z,1.52
2023-05-03T15:22:51.770Z,1.85
2023-05-03T15:25:19.506Z,1.83
2023-05-03T15:27:48.141Z,1.83
2023-05-03T15:30:16.949Z,2.75
2023-05-03T15:35:13.079Z,2.60
2023-05-03T15:37:40.921Z,2.22
2023-05-03T15:40:21.139Z,3.47
2023-05-03T15:42:54.200Z,4.97
2023-05-03T15:45:28.951Z,3.90
2023-05-03T15:48:02.080Z,5.55
2023-05-03T15:50:30.723Z,4.83
2023-05-03T15:52:59.720Z,7.32
2023-05-03T15:57:56.737Z,4.47
2023-05-03T16:00:37.162Z,3.28
2023-05-03T16:03:17.799Z,2.65
2023-05-03T16:05:46.168Z,2.63
2023-05-03T16:08:20.826Z,3.03
2023-05-03T16:10:52.295Z,3.03
2023-05-03T16:13:23.754Z,6.07
2023-05-03T16:15:52.061Z,4.70
2023-05-03T16:18:20.113Z,5.00
2023-05-03T16:20:51.575Z,4.05
2023-05-03T16:23:26.602Z,3.70
2023-05-03T16:26:04.071Z,3.50
2023-05-03T16:28:37.852Z,5.53
2023-05-03T16:31:09.383Z,4.57
2023-05-03T16:33:57.843Z,3.08
2023-05-03T16:36:28.003Z,1.92
2023-05-03T16:39:05.638Z,1.42
2023-05-03T16:41:42.612Z,2.40
2023-05-03T16:44:10.441Z,2.80
2023-05-03T16:46:39.562Z,3.30
2023-05-03T16:51:39.965Z,4.45
2023-05-03T16:54:07.582Z,4.85
2023-05-03T16:56:35.111Z,9.88
2023-05-03T16:59:03.320Z,27.65
2023-05-03T17:01:30.814Z,25.43
2023-05-03T17:03:58.376Z,27.50
2023-05-03T17:06:26.696Z,10.85
2023-05-03T17:08:55.937Z,5.85
2023-05-03T17:11:26.402Z,3.38
2023-05-03T17:14:01.176Z,7.13
2023-05-03T17:16:32.176Z,2.95
2023-05-03T17:19:04.887Z,5.60
2023-05-03T17:21:32.926Z,2.22
2023-05-03T17:24:01.375Z,1.40
2023-05-03T17:26:32.773Z,4.78
2023-05-03T17:29:02.963Z,2.67
2023-05-03T17:31:34.074Z,1.73
2023-05-03T17:34:02.793Z,1.83
2023-05-03T17:36:32.335Z,2.10
2023-05-03T17:39:03.167Z,1.98
2023-05-03T17:41:31.383Z,1.98
2023-05-03T17:43:59.035Z,1.95
2023-05-03T17:46:27.516Z,2.17
2023-05-03T17:48:57.171Z,1.15
2023-05-03T17:54:00.511Z,1.98
2023-05-03T17:56:28.273Z,2.60
2023-05-03T17:58:55.986Z,2.95
2023-05-03T18:01:28.087Z,1.88
2023-05-03T18:03:57.611Z,2.03
2023-05-03T18:06:29.844Z,2.50
2023-05-03T18:09:00.399Z,2.38
2023-05-03T18:11:32.308Z,2.80
2023-05-03T18:14:01.356Z,2.10
2023-05-03T18:16:28.910Z,1.55
2023-05-03T18:18:57.373Z,2.13
2023-05-03T18:21:26.980Z,5.60
2023-05-03T18:23:54.451Z,2.83
2023-05-03T18:26:32.810Z,2.67
2023-05-03T18:29:00.984Z,3.70
2023-05-03T18:31:28.468Z,2.45
2023-05-03T18:33:56.747Z,2.92
2023-05-03T18:36:24.920Z,2.55
2023-05-03T18:38:53.790Z,5.47
2023-05-03T18:41:22.878Z,4.93
2023-05-03T18:43:51.703Z,3.33
2023-05-03T18:46:22.210Z,3.60
2023-05-03T18:48:50.045Z,2.28
2023-05-03T18:52:22.715Z,2.47
2023-05-03T18:55:10.642Z,2.67
2023-05-03T18:57:38.366Z,1.60
2023-05-03T19:00:07.223Z,4.13
2023-05-03T19:02:35.352Z,2.92
2023-05-03T19:05:03.226Z,4.20
2023-05-03T19:07:31.116Z,3.72
2023-05-03T19:10:00.074Z,3.42
2023-05-03T19:12:27.757Z,6.43
2023-05-03T19:14:55.141Z,6.32
2023-05-03T19:17:23.056Z,3.35
2023-05-03T19:19:50.885Z,2.97
2023-05-03T19:22:18.280Z,2.60
2023-05-03T19:24:46.175Z,3.13
2023-05-03T19:27:14.378Z,2.20
2023-05-03T19:29:42.611Z,1.20
2023-05-03T19:32:11.595Z,1.07
2023-05-03T19:34:41.507Z,1.08
2023-05-03T19:37:09.765Z,1.40
2023-05-03T19:39:37.813Z,1.42
2023-05-03T19:42:05.579Z,1.17
2023-05-03T19:44:34.560Z,1.70
2023-05-03T19:47:03.177Z,2.17
2023-05-03T19:49:31.945Z,2.27
2023-05-03T19:52:01.771Z,1.52
2023-05-03T19:54:29.498Z,1.88
2023-05-03T19:56:57.124Z,1.50
2023-05-03T19:59:25.334Z,0.88
2023-05-03T20:01:53.151Z,0.57
2023-05-03T20:04:21.145Z,1.00
2023-05-03T20:06:48.728Z,1.08
2023-05-03T20:09:16.643Z,2.00
2023-05-03T20:11:44.341Z,1.40
2023-05-03T20:14:11.997Z,1.25
2023-05-03T20:16:40.376Z,1.75
2023-05-03T20:19:09.143Z,0.95
2023-05-03T20:21:37.755Z,1.10
2023-05-03T20:24:10.175Z,1.23
2023-05-03T20:26:38.522Z,1.65
2023-05-03T20:29:06.428Z,1.75
2023-05-03T20:31:34.768Z,1.42
2023-05-03T20:34:03.819Z,1.27
2023-05-03T20:36:31.764Z,0.90
2023-05-03T20:38:59.359Z,4.45
2023-05-03T20:41:26.951Z,6.65
2023-05-03T20:43:54.669Z,2.17
2023-05-03T20:46:22.384Z,1.08
2023-05-03T20:48:49.913Z,1.30
2023-05-03T20:51:17.435Z,1.15
2023-05-03T20:53:45.453Z,2.30
2023-05-03T20:56:13.289Z,3.45
2023-05-03T20:58:41.336Z,2.53
2023-05-03T21:01:09.020Z,1.77
2023-05-03T21:03:36.479Z,2.13
2023-05-03T21:06:06.224Z,2.55
2023-05-03T21:08:35.244Z,2.33
2023-05-03T21:11:03.520Z,2.50
2023-05-03T21:13:31.095Z,2.35
2023-05-03T21:15:58.570Z,1.58
2023-05-03T21:18:26.061Z,1.63
2023-05-03T21:20:54.094Z,1.30
2023-05-03T21:23:22.005Z,1.10
2023-05-03T21:25:49.628Z,1.33
2023-05-03T21:28:17.334Z,1.75
2023-05-03T21:30:47.609Z,2.15
2023-05-03T21:33:15.772Z,5.90
2023-05-03T21:35:43.483Z,2.20
2023-05-03T21:38:11.236Z,2.58
2023-05-03T21:40:38.615Z,3.10
2023-05-03T21:43:08.491Z,3.42
2023-05-03T21:45:36.013Z,2.05
2023-05-03T21:48:04.378Z,1.30
2023-05-03T21:50:32.074Z,0.98
2023-05-03T21:52:59.619Z,1.50
2023-05-03T21:55:27.518Z,1.20
2023-05-03T21:57:55.297Z,0.88
2023-05-03T22:00:22.794Z,1.38
2023-05-03T22:02:50.966Z,2.40
2023-05-03T22:05:18.780Z,1.75
2023-05-03T22:07:47.922Z,1.23
2023-05-03T22:10:15.916Z,1.40
2023-05-03T22:12:43.779Z,0.80
2023-05-03T22:15:11.537Z,0.95
2023-05-03T22:17:39.326Z,1.23
2023-05-03T22:20:09.841Z,0.80
2023-05-03T22:22:37.492Z,1.08
2023-05-03T22:25:06.173Z,1.02
2023-05-03T22:27:33.571Z,1.20
2023-05-03T22:30:01.112Z,0.82
2023-05-03T22:32:28.803Z,0.70
2023-05-03T22:34:56.395Z,0.93
2023-05-03T22:37:24.019Z,0.85
2023-05-03T22:39:51.568Z,0.80
2023-05-03T22:42:19.173Z,1.15
2023-05-03T22:44:47.546Z,1.08
2023-05-03T22:47:15.395Z,0.73
2023-05-03T22:49:43.176Z,1.20
2023-05-03T22:52:10.774Z,1.35
2023-05-03T22:54:38.509Z,1.10
2023-05-03T22:57:06.695Z,1.77
2023-05-03T22:59:34.153Z,0.75
2023-05-03T23:02:01.597Z,1.33
2023-05-03T23:04:29.344Z,1.63
2023-05-03T23:22:42.524Z,1.45
2023-05-03T23:25:10.122Z,1.35
2023-05-03T23:27:37.644Z,1.92
2023-05-03T23:30:06.833Z,1.60
2023-05-03T23:35:03.109Z,1.85
2023-05-03T23:37:30.868Z,1.42
2023-05-03T23:39:58.410Z,1.70
2023-05-03T23:42:25.862Z,1.50
2023-05-03T23:44:55.731Z,1.58
2023-05-03T23:47:23.724Z,2.30
2023-05-03T23:49:51.412Z,2.13
2023-05-03T23:52:19.755Z,2.95
2023-05-03T23:54:47.218Z,2.63
2023-05-03T23:57:15.211Z,2.25
2023-05-03T23:59:42.650Z,1.90
